Herd, Kentucky
Current Conditions -  °F | °C
As of 6:53 PM on Saturday 25 Oct 2014 (Local Time) from KLOZ Reporting Station
Few Clouds Few Clouds  
Wind Chill: 67°   Ceiling: Unl
Heat Index: 67°   Visibility: 10mi
Dew Point: 54°   Wind: 5mph
Humidity: 63%   Direction: 230°SW
Pressure: 30"   Gusts: NA
Location:  37.346°N, 83.8503°W
Report Text: KLOZ 252253Z AUTO 23004KT 10SM FEW032 19/12 A3000 RMK AO2 SLP157 T01940122
Loading
Personal Weather Stations






























Interactive Weather Map
Tropical Storm Tracking
New forecast layout! Learn more

10-Day Weather Forecast

Advertisements
Track Severe Weather on mobile